KBRO/BRO METAR and TAF weather

Enter ICAO airport designator
Station Type Date Time Source
KBRO METAR 2020/02/16 19:53 UTC NOAA

KBRO 161953Z 00000KT 10SM FEW025 BKN034 BKN049 27/19 A2996 RMK AO2 SLP144 T02670194


Station Type Date Time Source
KBRO Decoded METAR 2020/02/16 19:53 UTC NOAA

BROWNSVILLE/SOUTH PADRE IS, TX, United States (KBRO) 25-54N 97-25W 5M
Feb 16, 2020 - 02:53 PM EST / 2020.02.16 1953 UTC
Wind: Calm:0
Visibility: 10 mile(s):0
Sky conditions: mostly cloudy
Temperature: 80.1 F (26.7 C)
Dew Point: 66.9 F (19.4 C)
Relative Humidity: 64%
Pressure (altimeter): 29.96 in. Hg (1014 hPa)
ob: KBRO 161953Z 00000KT 10SM FEW025 BKN034 BKN049 27/19 A2996 RMK AO2 SLP144 T02670194
cycle: 20

Station Type Date Time Source
KBRO TAF 2020/02/16 18:22 UTC NOAA

TAF KBRO 161720Z 1618/1718 00000KT P6SM FEW009 SCT026 OVC035
FM170000 12006KT P6SM OVC050
FM170300 12003KT 1 1/2SM BR OVC004
FM170600 16004KT 1/2SM FG OVC004
FM170900 16004KT 1/4SM FG OVC004
FM171200 16005KT 2SM BR OVC004

Example: see airport list